sensor_id;sensor_type;location;lat;lon;timestamp;P1;durP1;ratioP1;P2;durP2;ratioP2
10934;SDS011;5520;45.752;4.874;2023-10-09T00:00:13;15.27;;;8.27;;
10934;SDS011;5520;45.752;4.874;2023-10-09T00:03:11;13.13;;;8.03;;
10934;SDS011;5520;45.752;4.874;2023-10-09T00:05:40;20.40;;;8.17;;
10934;SDS011;5520;45.752;4.874;2023-10-09T00:08:13;18.43;;;8.07;;
10934;SDS011;5520;45.752;4.874;2023-10-09T00:10:46;15.10;;;7.90;;
10934;SDS011;5520;45.752;4.874;2023-10-09T00:13:20;13.63;;;7.30;;
10934;SDS011;5520;45.752;4.874;2023-10-09T00:15:55;12.87;;;6.80;;
10934;SDS011;5520;45.752;4.874;2023-10-09T00:18:28;12.03;;;6.73;;
10934;SDS011;5520;45.752;4.874;2023-10-09T00:21:01;18.27;;;7.23;;
10934;SDS011;5520;45.752;4.874;2023-10-09T00:23:38;12.53;;;7.17;;
10934;SDS011;5520;45.752;4.874;2023-10-09T00:26:07;12.37;;;7.53;;
10934;SDS011;5520;45.752;4.874;2023-10-09T00:28:39;15.20;;;7.37;;
10934;SDS011;5520;45.752;4.874;2023-10-09T00:31:11;17.60;;;7.33;;
10934;SDS011;5520;45.752;4.874;2023-10-09T00:33:44;17.17;;;7.40;;
10934;SDS011;5520;45.752;4.874;2023-10-09T00:36:12;15.60;;;7.77;;
10934;SDS011;5520;45.752;4.874;2023-10-09T00:38:44;16.17;;;8.00;;
10934;SDS011;5520;45.752;4.874;2023-10-09T00:41:16;18.13;;;7.80;;
10934;SDS011;5520;45.752;4.874;2023-10-09T00:43:48;16.47;;;8.43;;
10934;SDS011;5520;45.752;4.874;2023-10-09T00:46:18;18.30;;;9.53;;
10934;SDS011;5520;45.752;4.874;2023-10-09T00:48:53;19.23;;;9.13;;
10934;SDS011;5520;45.752;4.874;2023-10-09T00:51:22;17.00;;;9.73;;
10934;SDS011;5520;45.752;4.874;2023-10-09T00:53:52;20.67;;;10.70;;
10934;SDS011;5520;45.752;4.874;2023-10-09T00:56:21;22.60;;;9.63;;
10934;SDS011;5520;45.752;4.874;2023-10-09T00:58:56;16.60;;;10.23;;
10934;SDS011;5520;45.752;4.874;2023-10-09T01:01:26;18.17;;;10.23;;
10934;SDS011;5520;45.752;4.874;2023-10-09T01:04:04;17.57;;;10.00;;
10934;SDS011;5520;45.752;4.874;2023-10-09T01:06:34;23.23;;;9.93;;
10934;SDS011;5520;45.752;4.874;2023-10-09T01:09:10;17.53;;;8.77;;
10934;SDS011;5520;45.752;4.874;2023-10-09T01:11:39;18.07;;;9.13;;
10934;SDS011;5520;45.752;4.874;2023-10-09T01:14:15;16.43;;;8.30;;
10934;SDS011;5520;45.752;4.874;2023-10-09T01:16:43;17.30;;;8.13;;
10934;SDS011;5520;45.752;4.874;2023-10-09T01:19:15;14.50;;;6.77;;
10934;SDS011;5520;45.752;4.874;2023-10-09T01:21:50;15.63;;;7.67;;
10934;SDS011;5520;45.752;4.874;2023-10-09T01:24:20;16.33;;;7.23;;
10934;SDS011;5520;45.752;4.874;2023-10-09T01:26:49;12.20;;;6.60;;
10934;SDS011;5520;45.752;4.874;2023-10-09T01:29:21;10.67;;;5.50;;
10934;SDS011;5520;45.752;4.874;2023-10-09T01:31:54;13.10;;;5.37;;
10934;SDS011;5520;45.752;4.874;2023-10-09T01:34:23;11.00;;;5.00;;
10934;SDS011;5520;45.752;4.874;2023-10-09T01:37:06;8.17;;;4.43;;
10934;SDS011;5520;45.752;4.874;2023-10-09T01:39:40;8.83;;;4.23;;
10934;SDS011;5520;45.752;4.874;2023-10-09T01:42:09;7.73;;;4.60;;
10934;SDS011;5520;45.752;4.874;2023-10-09T01:44:37;8.20;;;4.67;;
10934;SDS011;5520;45.752;4.874;2023-10-09T01:47:10;7.77;;;4.23;;
10934;SDS011;5520;45.752;4.874;2023-10-09T01:49:41;8.83;;;4.33;;
10934;SDS011;5520;45.752;4.874;2023-10-09T01:52:10;9.37;;;4.20;;
10934;SDS011;5520;45.752;4.874;2023-10-09T01:54:44;6.27;;;3.97;;
10934;SDS011;5520;45.752;4.874;2023-10-09T01:57:16;8.50;;;4.33;;
10934;SDS011;5520;45.752;4.874;2023-10-09T01:59:50;7.63;;;4.50;;
10934;SDS011;5520;45.752;4.874;2023-10-09T02:02:20;9.77;;;3.83;;
10934;SDS011;5520;45.752;4.874;2023-10-09T02:05:00;9.10;;;4.20;;
10934;SDS011;5520;45.752;4.874;2023-10-09T02:07:36;8.43;;;4.47;;
10934;SDS011;5520;45.752;4.874;2023-10-09T02:10:20;7.90;;;4.37;;
10934;SDS011;5520;45.752;4.874;2023-10-09T02:12:58;8.03;;;4.17;;
10934;SDS011;5520;45.752;4.874;2023-10-09T02:15:33;8.30;;;3.87;;
10934;SDS011;5520;45.752;4.874;2023-10-09T02:18:20;8.13;;;4.13;;
10934;SDS011;5520;45.752;4.874;2023-10-09T02:21:06;7.27;;;4.20;;
10934;SDS011;5520;45.752;4.874;2023-10-09T02:23:41;12.03;;;4.77;;
10934;SDS011;5520;45.752;4.874;2023-10-09T02:26:15;7.87;;;4.27;;
10934;SDS011;5520;45.752;4.874;2023-10-09T02:28:46;6.93;;;3.67;;
10934;SDS011;5520;45.752;4.874;2023-10-09T02:31:19;6.60;;;4.77;;
10934;SDS011;5520;45.752;4.874;2023-10-09T02:33:49;9.83;;;3.90;;
10934;SDS011;5520;45.752;4.874;2023-10-09T02:36:20;13.13;;;4.67;;
10934;SDS011;5520;45.752;4.874;2023-10-09T02:38:48;11.70;;;4.37;;
10934;SDS011;5520;45.752;4.874;2023-10-09T02:41:21;9.93;;;4.43;;
10934;SDS011;5520;45.752;4.874;2023-10-09T02:43:54;9.40;;;4.17;;
10934;SDS011;5520;45.752;4.874;2023-10-09T02:46:23;8.40;;;4.43;;
10934;SDS011;5520;45.752;4.874;2023-10-09T02:48:59;11.27;;;4.23;;
10934;SDS011;5520;45.752;4.874;2023-10-09T02:51:32;9.83;;;4.20;;
10934;SDS011;5520;45.752;4.874;2023-10-09T02:54:08;7.10;;;4.17;;
10934;SDS011;5520;45.752;4.874;2023-10-09T02:56:47;12.43;;;4.53;;
10934;SDS011;5520;45.752;4.874;2023-10-09T02:59:22;12.70;;;4.47;;
10934;SDS011;5520;45.752;4.874;2023-10-09T03:01:50;9.87;;;4.80;;
10934;SDS011;5520;45.752;4.874;2023-10-09T03:04:19;7.00;;;4.20;;
10934;SDS011;5520;45.752;4.874;2023-10-09T03:06:51;7.83;;;4.23;;
10934;SDS011;5520;45.752;4.874;2023-10-09T03:09:20;8.40;;;4.13;;
10934;SDS011;5520;45.752;4.874;2023-10-09T03:11:55;7.77;;;4.23;;
10934;SDS011;5520;45.752;4.874;2023-10-09T03:14:29;8.77;;;4.47;;
10934;SDS011;5520;45.752;4.874;2023-10-09T03:16:58;7.87;;;4.13;;
10934;SDS011;5520;45.752;4.874;2023-10-09T03:19:26;11.03;;;4.50;;
10934;SDS011;5520;45.752;4.874;2023-10-09T03:21:54;9.50;;;4.20;;
10934;SDS011;5520;45.752;4.874;2023-10-09T03:24:24;16.43;;;4.60;;
10934;SDS011;5520;45.752;4.874;2023-10-09T03:26:55;9.63;;;5.20;;
10934;SDS011;5520;45.752;4.874;2023-10-09T03:29:23;11.40;;;4.33;;
10934;SDS011;5520;45.752;4.874;2023-10-09T03:31:54;9.27;;;4.83;;
10934;SDS011;5520;45.752;4.874;2023-10-09T03:34:23;8.00;;;4.20;;
10934;SDS011;5520;45.752;4.874;2023-10-09T03:36:51;10.43;;;4.73;;
10934;SDS011;5520;45.752;4.874;2023-10-09T03:39:30;9.60;;;4.30;;
10934;SDS011;5520;45.752;4.874;2023-10-09T03:42:07;9.83;;;4.93;;
10934;SDS011;5520;45.752;4.874;2023-10-09T03:44:38;8.67;;;4.47;;
10934;SDS011;5520;45.752;4.874;2023-10-09T03:47:11;10.13;;;4.13;;
10934;SDS011;5520;45.752;4.874;2023-10-09T03:49:43;12.87;;;4.87;;
10934;SDS011;5520;45.752;4.874;2023-10-09T03:52:11;14.90;;;4.77;;
10934;SDS011;5520;45.752;4.874;2023-10-09T03:54:43;10.67;;;4.30;;
10934;SDS011;5520;45.752;4.874;2023-10-09T03:57:17;11.63;;;4.60;;
10934;SDS011;5520;45.752;4.874;2023-10-09T03:59:47;14.00;;;5.07;;
10934;SDS011;5520;45.752;4.874;2023-10-09T04:02:18;8.70;;;4.90;;
10934;SDS011;5520;45.752;4.874;2023-10-09T04:04:49;9.37;;;4.90;;
10934;SDS011;5520;45.752;4.874;2023-10-09T04:07:17;8.37;;;5.00;;
10934;SDS011;5520;45.752;4.874;2023-10-09T04:09:45;8.10;;;4.73;;
10934;SDS011;5520;45.752;4.874;2023-10-09T04:12:14;10.03;;;4.80;;
10934;SDS011;5520;45.752;4.874;2023-10-09T04:14:53;10.00;;;4.77;;
10934;SDS011;5520;45.752;4.874;2023-10-09T04:17:28;8.17;;;4.63;;
10934;SDS011;5520;45.752;4.874;2023-10-09T04:20:07;10.23;;;4.50;;
10934;SDS011;5520;45.752;4.874;2023-10-09T04:22:52;10.13;;;4.60;;
10934;SDS011;5520;45.752;4.874;2023-10-09T04:25:27;9.07;;;4.37;;
10934;SDS011;5520;45.752;4.874;2023-10-09T04:27:56;9.30;;;4.33;;
10934;SDS011;5520;45.752;4.874;2023-10-09T04:30:37;11.67;;;4.47;;
10934;SDS011;5520;45.752;4.874;2023-10-09T04:33:10;9.93;;;5.00;;
10934;SDS011;5520;45.752;4.874;2023-10-09T04:35:55;10.73;;;4.37;;
10934;SDS011;5520;45.752;4.874;2023-10-09T04:38:41;8.30;;;4.53;;
10934;SDS011;5520;45.752;4.874;2023-10-09T04:41:22;10.37;;;4.17;;
10934;SDS011;5520;45.752;4.874;2023-10-09T04:43:59;10.33;;;4.67;;
10934;SDS011;5520;45.752;4.874;2023-10-09T04:46:48;10.00;;;4.23;;
10934;SDS011;5520;45.752;4.874;2023-10-09T04:49:30;9.67;;;4.77;;
10934;SDS011;5520;45.752;4.874;2023-10-09T04:52:14;10.60;;;4.30;;
10934;SDS011;5520;45.752;4.874;2023-10-09T04:54:46;8.50;;;4.67;;
10934;SDS011;5520;45.752;4.874;2023-10-09T04:57:28;15.17;;;5.37;;
10934;SDS011;5520;45.752;4.874;2023-10-09T05:00:04;7.77;;;4.30;;
10934;SDS011;5520;45.752;4.874;2023-10-09T05:02:50;16.67;;;8.90;;
10934;SDS011;5520;45.752;4.874;2023-10-09T05:05:22;39.87;;;19.67;;
10934;SDS011;5520;45.752;4.874;2023-10-09T05:08:04;33.47;;;16.53;;
10934;SDS011;5520;45.752;4.874;2023-10-09T05:10:45;27.83;;;14.90;;
10934;SDS011;5520;45.752;4.874;2023-10-09T05:13:32;25.70;;;13.37;;
10934;SDS011;5520;45.752;4.874;2023-10-09T05:16:11;17.37;;;10.40;;
10934;SDS011;5520;45.752;4.874;2023-10-09T05:18:47;16.73;;;9.13;;
10934;SDS011;5520;45.752;4.874;2023-10-09T05:21:24;18.03;;;9.63;;
10934;SDS011;5520;45.752;4.874;2023-10-09T05:24:04;14.83;;;7.80;;
10934;SDS011;5520;45.752;4.874;2023-10-09T05:26:43;14.13;;;7.80;;
10934;SDS011;5520;45.752;4.874;2023-10-09T05:29:19;12.33;;;7.53;;
10934;SDS011;5520;45.752;4.874;2023-10-09T05:31:46;17.60;;;7.80;;
10934;SDS011;5520;45.752;4.874;2023-10-09T05:34:31;14.50;;;9.00;;
10934;SDS011;5520;45.752;4.874;2023-10-09T05:37:07;11.47;;;6.17;;
10934;SDS011;5520;45.752;4.874;2023-10-09T05:39:44;10.80;;;5.63;;
10934;SDS011;5520;45.752;4.874;2023-10-09T05:42:32;8.63;;;5.23;;
10934;SDS011;5520;45.752;4.874;2023-10-09T05:45:10;19.53;;;7.03;;
10934;SDS011;5520;45.752;4.874;2023-10-09T05:47:56;12.80;;;5.37;;
10934;SDS011;5520;45.752;4.874;2023-10-09T05:50:26;10.40;;;5.47;;
10934;SDS011;5520;45.752;4.874;2023-10-09T05:53:04;11.47;;;6.07;;
10934;SDS011;5520;45.752;4.874;2023-10-09T05:55:34;8.97;;;4.80;;
10934;SDS011;5520;45.752;4.874;2023-10-09T05:58:30;9.10;;;5.57;;
10934;SDS011;5520;45.752;4.874;2023-10-09T06:01:24;17.23;;;6.07;;
10934;SDS011;5520;45.752;4.874;2023-10-09T06:04:10;11.67;;;5.93;;
10934;SDS011;5520;45.752;4.874;2023-10-09T06:06:45;16.17;;;6.23;;
10934;SDS011;5520;45.752;4.874;2023-10-09T06:09:22;13.93;;;6.03;;
10934;SDS011;5520;45.752;4.874;2023-10-09T06:12:30;18.87;;;6.53;;
10934;SDS011;5520;45.752;4.874;2023-10-09T06:15:20;17.97;;;6.70;;
10934;SDS011;5520;45.752;4.874;2023-10-09T06:18:17;17.90;;;5.90;;
10934;SDS011;5520;45.752;4.874;2023-10-09T06:21:01;17.07;;;6.17;;
10934;SDS011;5520;45.752;4.874;2023-10-09T06:23:36;12.93;;;5.87;;
10934;SDS011;5520;45.752;4.874;2023-10-09T06:26:22;25.47;;;7.43;;
10934;SDS011;5520;45.752;4.874;2023-10-09T06:28:54;17.87;;;7.47;;
10934;SDS011;5520;45.752;4.874;2023-10-09T06:31:36;20.57;;;7.63;;
10934;SDS011;5520;45.752;4.874;2023-10-09T06:34:26;20.47;;;7.63;;
10934;SDS011;5520;45.752;4.874;2023-10-09T06:36:59;16.20;;;7.30;;
10934;SDS011;5520;45.752;4.874;2023-10-09T06:39:43;17.97;;;8.77;;
10934;SDS011;5520;45.752;4.874;2023-10-09T06:42:34;18.87;;;7.10;;
10934;SDS011;5520;45.752;4.874;2023-10-09T06:45:12;16.43;;;7.17;;
10934;SDS011;5520;45.752;4.874;2023-10-09T06:47:43;12.87;;;7.37;;
10934;SDS011;5520;45.752;4.874;2023-10-09T06:50:20;12.03;;;7.00;;
10934;SDS011;5520;45.752;4.874;2023-10-09T06:53:14;12.80;;;6.30;;
10934;SDS011;5520;45.752;4.874;2023-10-09T06:55:52;11.43;;;6.00;;
10934;SDS011;5520;45.752;4.874;2023-10-09T06:58:32;15.33;;;7.37;;
10934;SDS011;5520;45.752;4.874;2023-10-09T07:01:10;14.83;;;6.80;;
10934;SDS011;5520;45.752;4.874;2023-10-09T07:03:56;12.80;;;7.00;;
10934;SDS011;5520;45.752;4.874;2023-10-09T07:06:37;20.27;;;6.20;;
10934;SDS011;5520;45.752;4.874;2023-10-09T07:09:18;13.00;;;5.87;;
10934;SDS011;5520;45.752;4.874;2023-10-09T07:11:46;15.50;;;6.27;;
10934;SDS011;5520;45.752;4.874;2023-10-09T07:14:30;16.20;;;5.87;;
10934;SDS011;5520;45.752;4.874;2023-10-09T07:17:18;18.97;;;6.07;;
10934;SDS011;5520;45.752;4.874;2023-10-09T07:20:11;16.87;;;6.27;;
10934;SDS011;5520;45.752;4.874;2023-10-09T07:22:40;14.37;;;6.23;;
10934;SDS011;5520;45.752;4.874;2023-10-09T07:25:19;14.40;;;6.00;;
10934;SDS011;5520;45.752;4.874;2023-10-09T07:28:01;15.97;;;7.00;;
10934;SDS011;5520;45.752;4.874;2023-10-09T07:30:44;16.73;;;6.97;;
10934;SDS011;5520;45.752;4.874;2023-10-09T07:33:14;18.03;;;6.50;;
10934;SDS011;5520;45.752;4.874;2023-10-09T07:35:45;14.30;;;6.90;;
10934;SDS011;5520;45.752;4.874;2023-10-09T07:38:24;33.93;;;16.50;;
10934;SDS011;5520;45.752;4.874;2023-10-09T07:40:56;20.40;;;8.23;;
10934;SDS011;5520;45.752;4.874;2023-10-09T07:43:34;16.03;;;7.63;;
10934;SDS011;5520;45.752;4.874;2023-10-09T07:46:06;12.27;;;6.33;;
10934;SDS011;5520;45.752;4.874;2023-10-09T07:48:52;14.70;;;6.50;;
10934;SDS011;5520;45.752;4.874;2023-10-09T07:51:21;19.80;;;7.37;;
10934;SDS011;5520;45.752;4.874;2023-10-09T07:53:50;15.50;;;6.53;;
10934;SDS011;5520;45.752;4.874;2023-10-09T07:56:23;20.80;;;7.10;;
10934;SDS011;5520;45.752;4.874;2023-10-09T07:58:56;19.23;;;7.20;;
10934;SDS011;5520;45.752;4.874;2023-10-09T08:01:26;14.37;;;7.17;;
10934;SDS011;5520;45.752;4.874;2023-10-09T08:04:04;12.07;;;7.00;;
10934;SDS011;5520;45.752;4.874;2023-10-09T08:06:38;17.70;;;6.50;;
10934;SDS011;5520;45.752;4.874;2023-10-09T08:09:06;15.87;;;7.23;;
10934;SDS011;5520;45.752;4.874;2023-10-09T08:11:53;18.33;;;7.33;;
10934;SDS011;5520;45.752;4.874;2023-10-09T08:14:38;22.93;;;7.57;;
10934;SDS011;5520;45.752;4.874;2023-10-09T08:17:12;15.60;;;7.20;;
10934;SDS011;5520;45.752;4.874;2023-10-09T08:19:45;23.57;;;7.80;;
10934;SDS011;5520;45.752;4.874;2023-10-09T08:22:25;14.53;;;7.20;;
10934;SDS011;5520;45.752;4.874;2023-10-09T08:25:10;19.17;;;7.40;;
10934;SDS011;5520;45.752;4.874;2023-10-09T08:27:55;20.87;;;7.40;;
10934;SDS011;5520;45.752;4.874;2023-10-09T08:30:24;18.83;;;7.10;;
10934;SDS011;5520;45.752;4.874;2023-10-09T08:33:10;17.23;;;6.77;;
10934;SDS011;5520;45.752;4.874;2023-10-09T08:36:00;17.57;;;7.00;;
10934;SDS011;5520;45.752;4.874;2023-10-09T08:38:32;19.70;;;7.00;;
10934;SDS011;5520;45.752;4.874;2023-10-09T08:41:06;15.27;;;7.37;;
10934;SDS011;5520;45.752;4.874;2023-10-09T08:43:49;19.17;;;7.63;;
10934;SDS011;5520;45.752;4.874;2023-10-09T08:46:20;12.77;;;6.30;;
10934;SDS011;5520;45.752;4.874;2023-10-09T08:48:49;14.90;;;6.73;;
10934;SDS011;5520;45.752;4.874;2023-10-09T08:51:19;14.87;;;7.33;;
10934;SDS011;5520;45.752;4.874;2023-10-09T08:53:47;10.77;;;7.07;;
10934;SDS011;5520;45.752;4.874;2023-10-09T08:56:16;18.03;;;6.83;;
10934;SDS011;5520;45.752;4.874;2023-10-09T08:58:52;15.47;;;6.33;;
10934;SDS011;5520;45.752;4.874;2023-10-09T09:01:20;16.63;;;7.60;;
10934;SDS011;5520;45.752;4.874;2023-10-09T09:03:49;14.77;;;7.37;;
10934;SDS011;5520;45.752;4.874;2023-10-09T09:06:19;15.77;;;7.23;;
10934;SDS011;5520;45.752;4.874;2023-10-09T09:08:48;15.93;;;6.63;;
10934;SDS011;5520;45.752;4.874;2023-10-09T09:11:21;16.83;;;6.97;;
10934;SDS011;5520;45.752;4.874;2023-10-09T09:13:59;17.43;;;7.00;;
10934;SDS011;5520;45.752;4.874;2023-10-09T09:16:32;12.53;;;6.60;;
10934;SDS011;5520;45.752;4.874;2023-10-09T09:19:02;12.10;;;6.50;;
10934;SDS011;5520;45.752;4.874;2023-10-09T09:21:33;12.30;;;6.57;;
10934;SDS011;5520;45.752;4.874;2023-10-09T09:24:08;20.87;;;6.87;;
10934;SDS011;5520;45.752;4.874;2023-10-09T09:26:54;13.13;;;5.60;;
10934;SDS011;5520;45.752;4.874;2023-10-09T09:29:38;13.70;;;6.37;;
10934;SDS011;5520;45.752;4.874;2023-10-09T09:32:06;16.10;;;5.50;;
10934;SDS011;5520;45.752;4.874;2023-10-09T09:34:46;14.70;;;5.53;;
10934;SDS011;5520;45.752;4.874;2023-10-09T09:37:22;15.77;;;6.53;;
10934;SDS011;5520;45.752;4.874;2023-10-09T09:39:56;19.87;;;5.40;;
10934;SDS011;5520;45.752;4.874;2023-10-09T09:42:27;13.20;;;5.40;;
10934;SDS011;5520;45.752;4.874;2023-10-09T09:44:58;13.50;;;5.47;;
10934;SDS011;5520;45.752;4.874;2023-10-09T09:47:26;13.57;;;5.87;;
10934;SDS011;5520;45.752;4.874;2023-10-09T09:49:56;13.80;;;5.30;;
10934;SDS011;5520;45.752;4.874;2023-10-09T09:52:39;14.90;;;5.23;;
10934;SDS011;5520;45.752;4.874;2023-10-09T09:55:08;16.37;;;5.83;;
10934;SDS011;5520;45.752;4.874;2023-10-09T09:57:44;17.93;;;5.90;;
10934;SDS011;5520;45.752;4.874;2023-10-09T10:00:19;19.47;;;7.00;;
10934;SDS011;5520;45.752;4.874;2023-10-09T10:02:58;13.70;;;4.83;;
10934;SDS011;5520;45.752;4.874;2023-10-09T10:05:27;16.87;;;5.73;;
10934;SDS011;5520;45.752;4.874;2023-10-09T10:07:58;16.77;;;7.80;;
10934;SDS011;5520;45.752;4.874;2023-10-09T10:10:33;63.37;;;13.60;;
10934;SDS011;5520;45.752;4.874;2023-10-09T10:13:04;58.30;;;13.50;;
10934;SDS011;5520;45.752;4.874;2023-10-09T10:18:21;40.50;;;10.57;;
10934;SDS011;5520;45.752;4.874;2023-10-09T10:23:42;20.70;;;7.57;;
10934;SDS011;5520;45.752;4.874;2023-10-09T10:26:17;19.70;;;7.30;;
10934;SDS011;5520;45.752;4.874;2023-10-09T10:34:14;13.43;;;5.07;;
10934;SDS011;5520;45.752;4.874;2023-10-09T10:36:42;15.67;;;4.97;;
10934;SDS011;5520;45.752;4.874;2023-10-09T10:39:12;16.00;;;5.80;;
10934;SDS011;5520;45.752;4.874;2023-10-09T10:41:55;21.47;;;6.03;;
10934;SDS011;5520;45.752;4.874;2023-10-09T10:44:25;12.37;;;4.93;;
10934;SDS011;5520;45.752;4.874;2023-10-09T10:47:04;10.93;;;5.10;;
10934;SDS011;5520;45.752;4.874;2023-10-09T10:49:43;20.70;;;4.97;;
10934;SDS011;5520;45.752;4.874;2023-10-09T10:52:19;11.33;;;4.73;;
10934;SDS011;5520;45.752;4.874;2023-10-09T10:54:49;18.00;;;4.83;;
10934;SDS011;5520;45.752;4.874;2023-10-09T10:57:35;12.40;;;4.20;;
10934;SDS011;5520;45.752;4.874;2023-10-09T11:00:19;15.13;;;5.20;;
10934;SDS011;5520;45.752;4.874;2023-10-09T11:03:05;14.13;;;6.17;;
10934;SDS011;5520;45.752;4.874;2023-10-09T11:05:43;15.97;;;5.10;;
10934;SDS011;5520;45.752;4.874;2023-10-09T11:08:18;16.47;;;4.77;;
10934;SDS011;5520;45.752;4.874;2023-10-09T11:10:51;13.43;;;4.90;;
10934;SDS011;5520;45.752;4.874;2023-10-09T11:13:20;13.70;;;5.33;;
10934;SDS011;5520;45.752;4.874;2023-10-09T11:16:01;15.43;;;4.93;;
10934;SDS011;5520;45.752;4.874;2023-10-09T11:18:55;12.33;;;4.90;;
10934;SDS011;5520;45.752;4.874;2023-10-09T11:21:31;16.27;;;5.33;;
10934;SDS011;5520;45.752;4.874;2023-10-09T11:24:07;9.77;;;4.40;;
10934;SDS011;5520;45.752;4.874;2023-10-09T11:26:57;19.17;;;5.23;;
10934;SDS011;5520;45.752;4.874;2023-10-09T11:29:32;13.43;;;5.90;;
10934;SDS011;5520;45.752;4.874;2023-10-09T11:32:14;8.53;;;4.80;;
10934;SDS011;5520;45.752;4.874;2023-10-09T11:34:45;15.87;;;5.17;;
10934;SDS011;5520;45.752;4.874;2023-10-09T11:37:19;15.47;;;4.97;;
10934;SDS011;5520;45.752;4.874;2023-10-09T11:40:05;13.73;;;5.13;;
10934;SDS011;5520;45.752;4.874;2023-10-09T11:42:50;16.07;;;4.80;;
10934;SDS011;5520;45.752;4.874;2023-10-09T11:45:20;14.90;;;4.23;;
10934;SDS011;5520;45.752;4.874;2023-10-09T11:47:51;13.27;;;4.63;;
10934;SDS011;5520;45.752;4.874;2023-10-09T11:50:38;10.30;;;4.20;;
10934;SDS011;5520;45.752;4.874;2023-10-09T11:53:10;9.37;;;4.57;;
10934;SDS011;5520;45.752;4.874;2023-10-09T11:55:46;9.90;;;4.43;;
10934;SDS011;5520;45.752;4.874;2023-10-09T11:58:17;21.47;;;5.50;;
10934;SDS011;5520;45.752;4.874;2023-10-09T12:00:50;13.57;;;5.47;;
10934;SDS011;5520;45.752;4.874;2023-10-09T12:03:24;13.73;;;4.27;;
10934;SDS011;5520;45.752;4.874;2023-10-09T12:05:58;12.40;;;4.37;;
10934;SDS011;5520;45.752;4.874;2023-10-09T12:08:30;9.13;;;4.23;;
10934;SDS011;5520;45.752;4.874;2023-10-09T12:10:59;9.67;;;3.97;;
10934;SDS011;5520;45.752;4.874;2023-10-09T12:13:36;8.47;;;3.90;;
10934;SDS011;5520;45.752;4.874;2023-10-09T12:16:05;7.63;;;3.83;;
10934;SDS011;5520;45.752;4.874;2023-10-09T12:18:36;8.83;;;4.37;;
10934;SDS011;5520;45.752;4.874;2023-10-09T12:21:06;7.83;;;3.50;;
10934;SDS011;5520;45.752;4.874;2023-10-09T12:23:37;11.27;;;3.77;;
10934;SDS011;5520;45.752;4.874;2023-10-09T12:26:07;9.37;;;3.90;;
10934;SDS011;5520;45.752;4.874;2023-10-09T12:28:42;10.67;;;4.50;;
10934;SDS011;5520;45.752;4.874;2023-10-09T12:31:13;6.83;;;3.60;;
10934;SDS011;5520;45.752;4.874;2023-10-09T12:33:42;8.47;;;3.10;;
10934;SDS011;5520;45.752;4.874;2023-10-09T12:36:11;11.17;;;3.30;;
10934;SDS011;5520;45.752;4.874;2023-10-09T12:38:44;6.53;;;3.20;;
10934;SDS011;5520;45.752;4.874;2023-10-09T12:41:17;10.17;;;4.00;;
10934;SDS011;5520;45.752;4.874;2023-10-09T12:43:54;7.60;;;3.87;;
10934;SDS011;5520;45.752;4.874;2023-10-09T12:46:26;9.50;;;3.47;;
10934;SDS011;5520;45.752;4.874;2023-10-09T12:48:59;7.07;;;3.57;;
10934;SDS011;5520;45.752;4.874;2023-10-09T12:51:27;8.20;;;3.70;;
10934;SDS011;5520;45.752;4.874;2023-10-09T12:53:57;10.40;;;4.30;;
10934;SDS011;5520;45.752;4.874;2023-10-09T12:56:28;7.10;;;3.23;;
10934;SDS011;5520;45.752;4.874;2023-10-09T12:59:06;11.50;;;3.30;;
10934;SDS011;5520;45.752;4.874;2023-10-09T13:01:34;7.70;;;3.20;;
10934;SDS011;5520;45.752;4.874;2023-10-09T13:04:09;11.87;;;3.37;;
10934;SDS011;5520;45.752;4.874;2023-10-09T13:06:38;6.77;;;3.70;;
10934;SDS011;5520;45.752;4.874;2023-10-09T13:09:10;6.67;;;2.93;;
10934;SDS011;5520;45.752;4.874;2023-10-09T13:11:40;7.50;;;3.27;;
10934;SDS011;5520;45.752;4.874;2023-10-09T13:14:10;9.50;;;3.47;;
10934;SDS011;5520;45.752;4.874;2023-10-09T13:16:44;10.43;;;3.83;;
10934;SDS011;5520;45.752;4.874;2023-10-09T13:19:12;7.57;;;2.57;;
10934;SDS011;5520;45.752;4.874;2023-10-09T13:21:40;7.80;;;3.60;;
10934;SDS011;5520;45.752;4.874;2023-10-09T13:24:08;9.00;;;3.07;;
10934;SDS011;5520;45.752;4.874;2023-10-09T13:26:40;7.93;;;3.43;;
10934;SDS011;5520;45.752;4.874;2023-10-09T13:29:13;9.33;;;3.87;;
10934;SDS011;5520;45.752;4.874;2023-10-09T13:31:49;8.53;;;3.70;;
10934;SDS011;5520;45.752;4.874;2023-10-09T13:34:19;8.50;;;3.53;;
10934;SDS011;5520;45.752;4.874;2023-10-09T13:36:47;5.73;;;2.90;;
10934;SDS011;5520;45.752;4.874;2023-10-09T13:39:20;12.60;;;3.47;;
10934;SDS011;5520;45.752;4.874;2023-10-09T13:41:51;11.17;;;4.07;;
10934;SDS011;5520;45.752;4.874;2023-10-09T13:44:27;12.00;;;3.47;;
10934;SDS011;5520;45.752;4.874;2023-10-09T13:46:55;13.53;;;3.47;;
10934;SDS011;5520;45.752;4.874;2023-10-09T13:49:23;11.23;;;3.93;;
10934;SDS011;5520;45.752;4.874;2023-10-09T13:51:57;10.13;;;3.97;;
10934;SDS011;5520;45.752;4.874;2023-10-09T13:54:26;9.33;;;4.03;;
10934;SDS011;5520;45.752;4.874;2023-10-09T13:57:06;7.43;;;3.10;;
10934;SDS011;5520;45.752;4.874;2023-10-09T13:59:39;7.73;;;3.00;;
10934;SDS011;5520;45.752;4.874;2023-10-09T14:02:15;10.70;;;3.53;;
10934;SDS011;5520;45.752;4.874;2023-10-09T14:04:48;22.60;;;4.27;;
10934;SDS011;5520;45.752;4.874;2023-10-09T14:07:17;11.17;;;4.10;;
10934;SDS011;5520;45.752;4.874;2023-10-09T14:09:47;6.00;;;2.93;;
10934;SDS011;5520;45.752;4.874;2023-10-09T14:12:22;14.50;;;3.80;;
10934;SDS011;5520;45.752;4.874;2023-10-09T14:14:53;6.73;;;3.00;;
10934;SDS011;5520;45.752;4.874;2023-10-09T14:17:21;7.90;;;2.70;;
10934;SDS011;5520;45.752;4.874;2023-10-09T14:19:52;9.90;;;3.80;;
10934;SDS011;5520;45.752;4.874;2023-10-09T14:22:22;14.13;;;3.10;;
10934;SDS011;5520;45.752;4.874;2023-10-09T14:24:51;9.17;;;3.77;;
10934;SDS011;5520;45.752;4.874;2023-10-09T14:27:22;12.10;;;3.40;;
10934;SDS011;5520;45.752;4.874;2023-10-09T14:29:54;11.13;;;3.30;;
10934;SDS011;5520;45.752;4.874;2023-10-09T14:32:23;8.43;;;3.30;;
10934;SDS011;5520;45.752;4.874;2023-10-09T14:34:55;10.37;;;3.73;;
10934;SDS011;5520;45.752;4.874;2023-10-09T14:37:28;8.87;;;3.33;;
10934;SDS011;5520;45.752;4.874;2023-10-09T14:39:56;12.83;;;3.80;;
10934;SDS011;5520;45.752;4.874;2023-10-09T14:42:25;13.57;;;4.20;;
10934;SDS011;5520;45.752;4.874;2023-10-09T14:44:56;12.10;;;3.30;;
10934;SDS011;5520;45.752;4.874;2023-10-09T14:47:24;13.57;;;4.00;;
10934;SDS011;5520;45.752;4.874;2023-10-09T14:49:52;10.47;;;4.07;;
10934;SDS011;5520;45.752;4.874;2023-10-09T14:52:23;13.67;;;4.57;;
10934;SDS011;5520;45.752;4.874;2023-10-09T14:54:51;8.37;;;3.20;;
10934;SDS011;5520;45.752;4.874;2023-10-09T14:57:19;7.93;;;3.53;;
10934;SDS011;5520;45.752;4.874;2023-10-09T14:59:47;11.27;;;3.33;;
10934;SDS011;5520;45.752;4.874;2023-10-09T15:02:18;12.50;;;3.77;;
10934;SDS011;5520;45.752;4.874;2023-10-09T15:04:46;12.30;;;2.97;;
10934;SDS011;5520;45.752;4.874;2023-10-09T15:07:14;8.47;;;3.13;;
10934;SDS011;5520;45.752;4.874;2023-10-09T15:10:04;10.80;;;3.40;;
10934;SDS011;5520;45.752;4.874;2023-10-09T15:12:32;6.77;;;3.20;;
10934;SDS011;5520;45.752;4.874;2023-10-09T15:15:06;11.63;;;4.10;;
10934;SDS011;5520;45.752;4.874;2023-10-09T15:17:39;11.13;;;3.57;;
10934;SDS011;5520;45.752;4.874;2023-10-09T15:20:11;7.67;;;4.27;;
10934;SDS011;5520;45.752;4.874;2023-10-09T15:22:41;11.17;;;3.50;;
10934;SDS011;5520;45.752;4.874;2023-10-09T15:25:09;15.77;;;4.13;;
10934;SDS011;5520;45.752;4.874;2023-10-09T15:27:41;19.50;;;4.47;;
10934;SDS011;5520;45.752;4.874;2023-10-09T15:30:09;10.10;;;4.43;;
10934;SDS011;5520;45.752;4.874;2023-10-09T15:32:42;18.40;;;6.17;;
10934;SDS011;5520;45.752;4.874;2023-10-09T15:35:10;9.67;;;3.80;;
10934;SDS011;5520;45.752;4.874;2023-10-09T15:37:40;18.73;;;8.23;;
10934;SDS011;5520;45.752;4.874;2023-10-09T15:40:09;24.40;;;4.57;;
10934;SDS011;5520;45.752;4.874;2023-10-09T15:42:40;9.73;;;4.30;;
10934;SDS011;5520;45.752;4.874;2023-10-09T15:45:09;15.00;;;4.57;;